sensor_id;sensor_type;location;lat;lon;timestamp;temperature;humidity
52621;DHT22;38515;53.160;6.990;2023-11-21T00:01:37;9.10;99.90
52621;DHT22;38515;53.160;6.990;2023-11-21T00:04:03;9.10;99.90
52621;DHT22;38515;53.160;6.990;2023-11-21T00:06:29;9.10;99.90
52621;DHT22;38515;53.160;6.990;2023-11-21T00:08:56;9.20;1.00
52621;DHT22;38515;53.160;6.990;2023-11-21T00:11:22;9.20;1.00
52621;DHT22;38515;53.160;6.990;2023-11-21T00:13:48;9.20;1.00
52621;DHT22;38515;53.160;6.990;2023-11-21T00:16:14;9.10;1.00
52621;DHT22;38515;53.160;6.990;2023-11-21T00:18:40;9.10;1.00
52621;DHT22;38515;53.160;6.990;2023-11-21T00:21:06;9.10;1.00
52621;DHT22;38515;53.160;6.990;2023-11-21T00:23:31;9.10;1.00
52621;DHT22;38515;53.160;6.990;2023-11-21T00:25:57;9.10;1.00
52621;DHT22;38515;53.160;6.990;2023-11-21T00:28:23;9.00;1.00
52621;DHT22;38515;53.160;6.990;2023-11-21T00:30:50;9.00;1.00
52621;DHT22;38515;53.160;6.990;2023-11-21T00:33:16;8.90;1.00
52621;DHT22;38515;53.160;6.990;2023-11-21T00:35:42;8.90;1.00
52621;DHT22;38515;53.160;6.990;2023-11-21T00:38:08;8.90;1.00
52621;DHT22;38515;53.160;6.990;2023-11-21T00:40:34;8.90;1.00
52621;DHT22;38515;53.160;6.990;2023-11-21T00:43:00;8.80;1.00
52621;DHT22;38515;53.160;6.990;2023-11-21T00:45:26;8.90;1.00
52621;DHT22;38515;53.160;6.990;2023-11-21T00:47:52;8.80;1.00
52621;DHT22;38515;53.160;6.990;2023-11-21T00:50:18;8.80;1.00
52621;DHT22;38515;53.160;6.990;2023-11-21T00:52:44;8.80;1.00
52621;DHT22;38515;53.160;6.990;2023-11-21T00:55:10;8.80;1.00
52621;DHT22;38515;53.160;6.990;2023-11-21T00:57:37;8.80;1.00
52621;DHT22;38515;53.160;6.990;2023-11-21T01:00:04;8.80;1.00
52621;DHT22;38515;53.160;6.990;2023-11-21T01:02:38;8.90;1.00
52621;DHT22;38515;53.160;6.990;2023-11-21T01:05:04;8.80;1.00
52621;DHT22;38515;53.160;6.990;2023-11-21T01:07:30;8.70;1.00
52621;DHT22;38515;53.160;6.990;2023-11-21T01:09:56;8.70;1.00
52621;DHT22;38515;53.160;6.990;2023-11-21T01:12:22;8.80;1.00
52621;DHT22;38515;53.160;6.990;2023-11-21T01:14:50;8.80;1.00
52621;DHT22;38515;53.160;6.990;2023-11-21T01:17:16;8.80;1.00
52621;DHT22;38515;53.160;6.990;2023-11-21T01:19:43;8.80;1.00
52621;DHT22;38515;53.160;6.990;2023-11-21T01:22:09;8.90;19.60
52621;DHT22;38515;53.160;6.990;2023-11-21T01:24:37;8.90;57.50
52621;DHT22;38515;53.160;6.990;2023-11-21T01:27:03;8.80;88.60
52621;DHT22;38515;53.160;6.990;2023-11-21T01:29:30;8.80;85.70
52621;DHT22;38515;53.160;6.990;2023-11-21T01:31:55;8.90;99.90
52621;DHT22;38515;53.160;6.990;2023-11-21T01:34:23;8.90;99.90
52621;DHT22;38515;53.160;6.990;2023-11-21T01:36:49;9.00;99.90
52621;DHT22;38515;53.160;6.990;2023-11-21T01:39:15;9.00;99.90
52621;DHT22;38515;53.160;6.990;2023-11-21T01:41:42;9.00;99.90
52621;DHT22;38515;53.160;6.990;2023-11-21T01:44:09;9.00;99.90
52621;DHT22;38515;53.160;6.990;2023-11-21T01:46:36;9.00;99.90
52621;DHT22;38515;53.160;6.990;2023-11-21T01:49:03;8.90;99.90
52621;DHT22;38515;53.160;6.990;2023-11-21T01:51:29;9.00;99.90
52621;DHT22;38515;53.160;6.990;2023-11-21T01:53:56;9.10;99.90
52621;DHT22;38515;53.160;6.990;2023-11-21T01:56:23;9.00;99.90
52621;DHT22;38515;53.160;6.990;2023-11-21T01:58:49;9.10;99.90
52621;DHT22;38515;53.160;6.990;2023-11-21T02:01:15;9.00;99.90
52621;DHT22;38515;53.160;6.990;2023-11-21T02:03:41;9.00;99.90
52621;DHT22;38515;53.160;6.990;2023-11-21T02:06:07;9.00;99.90
52621;DHT22;38515;53.160;6.990;2023-11-21T02:08:34;9.10;99.90
52621;DHT22;38515;53.160;6.990;2023-11-21T02:11:00;9.10;99.90
52621;DHT22;38515;53.160;6.990;2023-11-21T02:13:28;9.10;99.90
52621;DHT22;38515;53.160;6.990;2023-11-21T02:15:54;9.10;99.90
52621;DHT22;38515;53.160;6.990;2023-11-21T02:18:20;9.10;99.90
52621;DHT22;38515;53.160;6.990;2023-11-21T02:20:47;9.10;99.90
52621;DHT22;38515;53.160;6.990;2023-11-21T02:23:13;9.10;99.90
52621;DHT22;38515;53.160;6.990;2023-11-21T02:25:40;9.10;99.90
52621;DHT22;38515;53.160;6.990;2023-11-21T02:28:08;9.10;99.90
52621;DHT22;38515;53.160;6.990;2023-11-21T02:30:34;9.00;99.90
52621;DHT22;38515;53.160;6.990;2023-11-21T02:33:01;8.30;99.90
52621;DHT22;38515;53.160;6.990;2023-11-21T02:35:27;9.10;99.90
52621;DHT22;38515;53.160;6.990;2023-11-21T02:37:54;9.10;99.90
52621;DHT22;38515;53.160;6.990;2023-11-21T02:40:20;9.10;1.00
52621;DHT22;38515;53.160;6.990;2023-11-21T02:42:50;9.10;1.00
52621;DHT22;38515;53.160;6.990;2023-11-21T02:45:18;9.10;1.00
52621;DHT22;38515;53.160;6.990;2023-11-21T02:47:46;9.10;1.00
52621;DHT22;38515;53.160;6.990;2023-11-21T02:50:13;9.10;1.00
52621;DHT22;38515;53.160;6.990;2023-11-21T02:52:39;9.10;1.00
52621;DHT22;38515;53.160;6.990;2023-11-21T02:55:08;9.10;1.00
52621;DHT22;38515;53.160;6.990;2023-11-21T02:57:34;9.00;1.00
52621;DHT22;38515;53.160;6.990;2023-11-21T03:00:00;9.00;99.90
52621;DHT22;38515;53.160;6.990;2023-11-21T03:02:26;9.00;99.90
52621;DHT22;38515;53.160;6.990;2023-11-21T03:04:52;9.00;99.90
52621;DHT22;38515;53.160;6.990;2023-11-21T03:07:18;9.10;1.00
52621;DHT22;38515;53.160;6.990;2023-11-21T03:09:47;9.10;1.00
52621;DHT22;38515;53.160;6.990;2023-11-21T03:12:13;9.10;1.00
52621;DHT22;38515;53.160;6.990;2023-11-21T03:14:42;9.00;1.00
52621;DHT22;38515;53.160;6.990;2023-11-21T03:17:08;9.00;1.00
52621;DHT22;38515;53.160;6.990;2023-11-21T03:19:33;9.00;1.00
52621;DHT22;38515;53.160;6.990;2023-11-21T03:21:59;9.20;1.00
52621;DHT22;38515;53.160;6.990;2023-11-21T03:24:25;9.10;1.00
52621;DHT22;38515;53.160;6.990;2023-11-21T03:26:52;9.20;1.00
52621;DHT22;38515;53.160;6.990;2023-11-21T03:29:18;9.20;1.00
52621;DHT22;38515;53.160;6.990;2023-11-21T03:31:44;9.20;26.00
52621;DHT22;38515;53.160;6.990;2023-11-21T03:34:14;9.30;69.30
52621;DHT22;38515;53.160;6.990;2023-11-21T03:36:40;9.20;99.30
52621;DHT22;38515;53.160;6.990;2023-11-21T03:39:07;9.20;99.90
52621;DHT22;38515;53.160;6.990;2023-11-21T03:41:33;9.20;99.90
52621;DHT22;38515;53.160;6.990;2023-11-21T03:43:59;9.30;99.90
52621;DHT22;38515;53.160;6.990;2023-11-21T03:46:25;9.20;99.90
52621;DHT22;38515;53.160;6.990;2023-11-21T03:48:51;9.20;99.90
52621;DHT22;38515;53.160;6.990;2023-11-21T03:51:17;9.30;99.90
52621;DHT22;38515;53.160;6.990;2023-11-21T03:53:43;9.30;99.90
52621;DHT22;38515;53.160;6.990;2023-11-21T03:56:09;9.30;99.90
52621;DHT22;38515;53.160;6.990;2023-11-21T03:58:35;9.30;99.90
52621;DHT22;38515;53.160;6.990;2023-11-21T04:01:01;9.30;99.90
52621;DHT22;38515;53.160;6.990;2023-11-21T04:03:27;9.30;99.90
52621;DHT22;38515;53.160;6.990;2023-11-21T04:05:53;9.30;99.90
52621;DHT22;38515;53.160;6.990;2023-11-21T04:08:18;9.30;99.90
52621;DHT22;38515;53.160;6.990;2023-11-21T04:10:44;9.30;99.90
52621;DHT22;38515;53.160;6.990;2023-11-21T04:13:10;9.30;99.90
52621;DHT22;38515;53.160;6.990;2023-11-21T04:15:36;9.30;99.90
52621;DHT22;38515;53.160;6.990;2023-11-21T04:18:02;9.30;99.90
52621;DHT22;38515;53.160;6.990;2023-11-21T04:20:28;9.20;99.90
52621;DHT22;38515;53.160;6.990;2023-11-21T04:22:54;9.40;99.90
52621;DHT22;38515;53.160;6.990;2023-11-21T04:25:20;9.30;99.90
52621;DHT22;38515;53.160;6.990;2023-11-21T04:27:46;9.30;99.90
52621;DHT22;38515;53.160;6.990;2023-11-21T04:30:12;9.30;99.90
52621;DHT22;38515;53.160;6.990;2023-11-21T04:32:38;9.30;99.90
52621;DHT22;38515;53.160;6.990;2023-11-21T04:35:10;9.30;99.90
52621;DHT22;38515;53.160;6.990;2023-11-21T04:37:36;9.30;99.90
52621;DHT22;38515;53.160;6.990;2023-11-21T04:40:02;9.30;99.90
52621;DHT22;38515;53.160;6.990;2023-11-21T04:42:34;9.30;99.90
52621;DHT22;38515;53.160;6.990;2023-11-21T04:45:00;9.30;99.90
52621;DHT22;38515;53.160;6.990;2023-11-21T04:47:27;9.30;99.90
52621;DHT22;38515;53.160;6.990;2023-11-21T04:49:52;9.30;99.90
52621;DHT22;38515;53.160;6.990;2023-11-21T04:52:18;9.40;99.90
52621;DHT22;38515;53.160;6.990;2023-11-21T04:54:45;9.40;99.90
52621;DHT22;38515;53.160;6.990;2023-11-21T04:57:11;9.30;99.90
52621;DHT22;38515;53.160;6.990;2023-11-21T04:59:37;9.30;99.90
52621;DHT22;38515;53.160;6.990;2023-11-21T05:02:03;9.30;99.90
52621;DHT22;38515;53.160;6.990;2023-11-21T05:04:30;9.30;99.90
52621;DHT22;38515;53.160;6.990;2023-11-21T05:06:56;9.30;99.90
52621;DHT22;38515;53.160;6.990;2023-11-21T05:09:22;9.30;99.90
52621;DHT22;38515;53.160;6.990;2023-11-21T05:11:48;9.30;99.90
52621;DHT22;38515;53.160;6.990;2023-11-21T05:14:14;9.30;99.90
52621;DHT22;38515;53.160;6.990;2023-11-21T05:16:39;9.20;99.90
52621;DHT22;38515;53.160;6.990;2023-11-21T05:19:05;9.20;99.90
52621;DHT22;38515;53.160;6.990;2023-11-21T05:21:32;9.30;99.90
52621;DHT22;38515;53.160;6.990;2023-11-21T05:23:58;9.20;99.90
52621;DHT22;38515;53.160;6.990;2023-11-21T05:26:24;9.30;99.90
52621;DHT22;38515;53.160;6.990;2023-11-21T05:28:50;9.20;99.90
52621;DHT22;38515;53.160;6.990;2023-11-21T05:31:16;9.20;99.90
52621;DHT22;38515;53.160;6.990;2023-11-21T05:33:42;9.30;99.90
52621;DHT22;38515;53.160;6.990;2023-11-21T05:36:08;9.20;99.90
52621;DHT22;38515;53.160;6.990;2023-11-21T05:38:36;9.20;99.90
52621;DHT22;38515;53.160;6.990;2023-11-21T05:41:02;9.30;99.90
52621;DHT22;38515;53.160;6.990;2023-11-21T05:43:29;9.20;99.90
52621;DHT22;38515;53.160;6.990;2023-11-21T05:45:56;9.30;99.90
52621;DHT22;38515;53.160;6.990;2023-11-21T05:48:22;9.20;99.90
52621;DHT22;38515;53.160;6.990;2023-11-21T05:50:49;9.30;99.90
52621;DHT22;38515;53.160;6.990;2023-11-21T05:53:15;9.30;99.90
52621;DHT22;38515;53.160;6.990;2023-11-21T05:55:42;9.30;99.90
52621;DHT22;38515;53.160;6.990;2023-11-21T05:58:08;9.30;99.90
52621;DHT22;38515;53.160;6.990;2023-11-21T06:00:34;9.30;99.90
52621;DHT22;38515;53.160;6.990;2023-11-21T06:03:00;9.20;99.90
52621;DHT22;38515;53.160;6.990;2023-11-21T06:05:26;9.20;99.90
52621;DHT22;38515;53.160;6.990;2023-11-21T06:07:53;9.30;99.90
52621;DHT22;38515;53.160;6.990;2023-11-21T06:10:21;9.30;99.90
52621;DHT22;38515;53.160;6.990;2023-11-21T06:12:48;9.20;99.90
52621;DHT22;38515;53.160;6.990;2023-11-21T06:15:14;9.30;99.90
52621;DHT22;38515;53.160;6.990;2023-11-21T06:17:41;9.20;99.90
52621;DHT22;38515;53.160;6.990;2023-11-21T06:20:08;9.20;99.90
52621;DHT22;38515;53.160;6.990;2023-11-21T06:22:40;9.10;99.90
52621;DHT22;38515;53.160;6.990;2023-11-21T06:25:07;9.20;99.90
52621;DHT22;38515;53.160;6.990;2023-11-21T06:27:34;9.20;99.90
52621;DHT22;38515;53.160;6.990;2023-11-21T06:30:01;9.10;99.90
52621;DHT22;38515;53.160;6.990;2023-11-21T06:32:28;9.10;99.90
52621;DHT22;38515;53.160;6.990;2023-11-21T06:34:57;9.10;99.90
52621;DHT22;38515;53.160;6.990;2023-11-21T06:37:29;9.10;99.90
52621;DHT22;38515;53.160;6.990;2023-11-21T06:39:56;9.00;99.90
52621;DHT22;38515;53.160;6.990;2023-11-21T06:42:22;9.00;99.90
52621;DHT22;38515;53.160;6.990;2023-11-21T06:44:49;9.00;99.90
52621;DHT22;38515;53.160;6.990;2023-11-21T06:47:17;8.90;99.90
52621;DHT22;38515;53.160;6.990;2023-11-21T06:49:43;8.90;99.90
52621;DHT22;38515;53.160;6.990;2023-11-21T06:52:09;8.80;91.00
52621;DHT22;38515;53.160;6.990;2023-11-21T06:54:36;8.80;55.60
52621;DHT22;38515;53.160;6.990;2023-11-21T06:57:02;8.90;91.40
52621;DHT22;38515;53.160;6.990;2023-11-21T06:59:28;8.80;91.50
52621;DHT22;38515;53.160;6.990;2023-11-21T07:01:54;8.80;87.50
52621;DHT22;38515;53.160;6.990;2023-11-21T07:04:20;8.80;78.00
52621;DHT22;38515;53.160;6.990;2023-11-21T07:06:46;8.70;79.60
52621;DHT22;38515;53.160;6.990;2023-11-21T07:09:15;7.60;70.40
52621;DHT22;38515;53.160;6.990;2023-11-21T07:11:41;8.80;76.00
52621;DHT22;38515;53.160;6.990;2023-11-21T07:14:07;8.80;59.60
52621;DHT22;38515;53.160;6.990;2023-11-21T07:16:35;8.70;57.60
52621;DHT22;38515;53.160;6.990;2023-11-21T07:19:08;8.70;59.90
52621;DHT22;38515;53.160;6.990;2023-11-21T07:21:35;8.80;56.20
52621;DHT22;38515;53.160;6.990;2023-11-21T07:24:02;8.70;1.00
52621;DHT22;38515;53.160;6.990;2023-11-21T07:26:29;8.70;1.00
52621;DHT22;38515;53.160;6.990;2023-11-21T07:28:55;8.70;1.00
52621;DHT22;38515;53.160;6.990;2023-11-21T07:31:22;8.70;1.00
52621;DHT22;38515;53.160;6.990;2023-11-21T07:33:48;8.70;1.00
52621;DHT22;38515;53.160;6.990;2023-11-21T07:36:15;8.60;1.00
52621;DHT22;38515;53.160;6.990;2023-11-21T07:38:42;8.60;1.00
52621;DHT22;38515;53.160;6.990;2023-11-21T07:41:09;8.60;1.00
52621;DHT22;38515;53.160;6.990;2023-11-21T07:43:35;8.60;1.00
52621;DHT22;38515;53.160;6.990;2023-11-21T07:46:02;8.60;1.00
52621;DHT22;38515;53.160;6.990;2023-11-21T07:48:32;8.60;1.00
52621;DHT22;38515;53.160;6.990;2023-11-21T07:50:59;8.50;1.00
52621;DHT22;38515;53.160;6.990;2023-11-21T07:53:25;8.60;1.00
52621;DHT22;38515;53.160;6.990;2023-11-21T07:55:54;8.60;1.00
52621;DHT22;38515;53.160;6.990;2023-11-21T07:58:20;8.60;1.00
52621;DHT22;38515;53.160;6.990;2023-11-21T08:00:46;8.50;1.00
52621;DHT22;38515;53.160;6.990;2023-11-21T08:03:15;8.40;1.00
52621;DHT22;38515;53.160;6.990;2023-11-21T08:05:44;8.40;1.00
52621;DHT22;38515;53.160;6.990;2023-11-21T08:08:10;8.40;1.00
52621;DHT22;38515;53.160;6.990;2023-11-21T08:10:36;8.40;1.00
52621;DHT22;38515;53.160;6.990;2023-11-21T08:13:03;8.40;1.00
52621;DHT22;38515;53.160;6.990;2023-11-21T08:15:29;8.40;1.00
52621;DHT22;38515;53.160;6.990;2023-11-21T08:17:57;8.40;1.00
52621;DHT22;38515;53.160;6.990;2023-11-21T08:20:24;8.40;1.00
52621;DHT22;38515;53.160;6.990;2023-11-21T08:22:50;8.40;1.00
52621;DHT22;38515;53.160;6.990;2023-11-21T08:25:18;8.50;1.00
52621;DHT22;38515;53.160;6.990;2023-11-21T08:27:46;8.40;1.00
52621;DHT22;38515;53.160;6.990;2023-11-21T08:30:12;8.40;1.00
52621;DHT22;38515;53.160;6.990;2023-11-21T08:32:39;8.40;1.00
52621;DHT22;38515;53.160;6.990;2023-11-21T08:35:07;8.40;1.00
52621;DHT22;38515;53.160;6.990;2023-11-21T08:37:33;8.40;99.90
52621;DHT22;38515;53.160;6.990;2023-11-21T08:40:03;8.40;99.90
52621;DHT22;38515;53.160;6.990;2023-11-21T08:42:34;8.50;1.00
52621;DHT22;38515;53.160;6.990;2023-11-21T08:45:00;8.50;1.00
52621;DHT22;38515;53.160;6.990;2023-11-21T08:47:27;8.50;1.00
52621;DHT22;38515;53.160;6.990;2023-11-21T08:49:53;8.50;1.00
52621;DHT22;38515;53.160;6.990;2023-11-21T08:52:19;8.60;1.00
52621;DHT22;38515;53.160;6.990;2023-11-21T08:54:51;8.50;1.00
52621;DHT22;38515;53.160;6.990;2023-11-21T08:57:24;8.60;1.00
52621;DHT22;38515;53.160;6.990;2023-11-21T08:59:50;8.60;1.00
52621;DHT22;38515;53.160;6.990;2023-11-21T09:02:25;8.60;1.00
52621;DHT22;38515;53.160;6.990;2023-11-21T09:04:52;8.50;1.00
52621;DHT22;38515;53.160;6.990;2023-11-21T09:07:21;8.60;1.00
52621;DHT22;38515;53.160;6.990;2023-11-21T09:09:47;8.60;1.00
52621;DHT22;38515;53.160;6.990;2023-11-21T09:12:14;8.60;1.00
52621;DHT22;38515;53.160;6.990;2023-11-21T09:14:41;8.50;1.00
52621;DHT22;38515;53.160;6.990;2023-11-21T09:17:09;8.50;1.00
52621;DHT22;38515;53.160;6.990;2023-11-21T09:19:37;8.40;1.00
52621;DHT22;38515;53.160;6.990;2023-11-21T09:22:03;8.50;1.00
52621;DHT22;38515;53.160;6.990;2023-11-21T09:24:34;8.50;1.00
52621;DHT22;38515;53.160;6.990;2023-11-21T09:27:00;8.50;1.00
52621;DHT22;38515;53.160;6.990;2023-11-21T09:29:26;8.40;1.00
52621;DHT22;38515;53.160;6.990;2023-11-21T09:31:52;8.40;99.90
52621;DHT22;38515;53.160;6.990;2023-11-21T09:34:20;8.40;99.90
52621;DHT22;38515;53.160;6.990;2023-11-21T09:36:47;8.40;99.90
52621;DHT22;38515;53.160;6.990;2023-11-21T09:39:13;8.50;99.90
52621;DHT22;38515;53.160;6.990;2023-11-21T09:44:13;8.40;99.90
52621;DHT22;38515;53.160;6.990;2023-11-21T09:46:43;8.50;99.90
52621;DHT22;38515;53.160;6.990;2023-11-21T09:49:10;8.50;99.90
52621;DHT22;38515;53.160;6.990;2023-11-21T09:51:43;8.60;1.00
52621;DHT22;38515;53.160;6.990;2023-11-21T09:54:13;8.70;1.00
52621;DHT22;38515;53.160;6.990;2023-11-21T09:56:42;8.60;1.00
52621;DHT22;38515;53.160;6.990;2023-11-21T09:59:14;8.60;1.00
52621;DHT22;38515;53.160;6.990;2023-11-21T10:01:41;8.70;1.00
52621;DHT22;38515;53.160;6.990;2023-11-21T10:04:11;8.60;1.00
52621;DHT22;38515;53.160;6.990;2023-11-21T10:06:41;8.60;1.00
52621;DHT22;38515;53.160;6.990;2023-11-21T10:09:10;8.60;1.00
52621;DHT22;38515;53.160;6.990;2023-11-21T10:11:41;8.70;1.00
52621;DHT22;38515;53.160;6.990;2023-11-21T10:14:11;8.70;1.00
52621;DHT22;38515;53.160;6.990;2023-11-21T10:16:41;8.70;1.00
52621;DHT22;38515;53.160;6.990;2023-11-21T10:19:10;8.60;99.90
52621;DHT22;38515;53.160;6.990;2023-11-21T10:21:38;8.60;99.90
52621;DHT22;38515;53.160;6.990;2023-11-21T10:24:04;8.70;99.90
52621;DHT22;38515;53.160;6.990;2023-11-21T10:26:32;8.70;99.90
52621;DHT22;38515;53.160;6.990;2023-11-21T10:28:59;8.70;99.90
52621;DHT22;38515;53.160;6.990;2023-11-21T10:31:29;8.80;99.90
52621;DHT22;38515;53.160;6.990;2023-11-21T10:36:38;9.10;1.00
52621;DHT22;38515;53.160;6.990;2023-11-21T10:39:04;9.20;1.00
52621;DHT22;38515;53.160;6.990;2023-11-21T10:41:30;9.20;1.00
52621;DHT22;38515;53.160;6.990;2023-11-21T10:43:56;9.10;99.90
52621;DHT22;38515;53.160;6.990;2023-11-21T10:46:22;9.10;99.90
52621;DHT22;38515;53.160;6.990;2023-11-21T10:48:53;9.10;99.90
52621;DHT22;38515;53.160;6.990;2023-11-21T10:51:20;9.10;36.30
52621;DHT22;38515;53.160;6.990;2023-11-21T10:53:46;9.00;1.00
52621;DHT22;38515;53.160;6.990;2023-11-21T10:56:14;9.00;99.90
52621;DHT22;38515;53.160;6.990;2023-11-21T10:58:49;8.80;99.90
52621;DHT22;38515;53.160;6.990;2023-11-21T11:01:18;8.80;1.00
52621;DHT22;38515;53.160;6.990;2023-11-21T11:03:44;8.70;99.90
52621;DHT22;38515;53.160;6.990;2023-11-21T11:06:10;8.70;99.90
52621;DHT22;38515;53.160;6.990;2023-11-21T11:08:38;8.80;99.90
52621;DHT22;38515;53.160;6.990;2023-11-21T11:11:09;8.90;99.90
52621;DHT22;38515;53.160;6.990;2023-11-21T11:13:36;8.90;97.30
52621;DHT22;38515;53.160;6.990;2023-11-21T11:16:04;8.90;16.20
52621;DHT22;38515;53.160;6.990;2023-11-21T11:18:33;9.00;1.00
52621;DHT22;38515;53.160;6.990;2023-11-21T11:21:31;9.00;99.90
52621;DHT22;38515;53.160;6.990;2023-11-21T11:33:25;9.00;99.90
52621;DHT22;38515;53.160;6.990;2023-11-21T11:38:33;8.90;99.90
52621;DHT22;38515;53.160;6.990;2023-11-21T11:41:06;8.90;99.90
52621;DHT22;38515;53.160;6.990;2023-11-21T11:43:32;8.90;99.90
52621;DHT22;38515;53.160;6.990;2023-11-21T11:46:02;8.90;99.90
52621;DHT22;38515;53.160;6.990;2023-11-21T11:48:29;8.90;1.00
52621;DHT22;38515;53.160;6.990;2023-11-21T11:51:02;8.90;1.00
52621;DHT22;38515;53.160;6.990;2023-11-21T11:53:36;8.80;99.90
52621;DHT22;38515;53.160;6.990;2023-11-21T11:58:55;8.80;1.00
52621;DHT22;38515;53.160;6.990;2023-11-21T12:01:23;8.80;99.90
52621;DHT22;38515;53.160;6.990;2023-11-21T12:06:43;8.80;99.90
52621;DHT22;38515;53.160;6.990;2023-11-21T12:09:18;8.80;43.70
52621;DHT22;38515;53.160;6.990;2023-11-21T12:11:46;8.80;1.00
52621;DHT22;38515;53.160;6.990;2023-11-21T12:14:13;8.80;1.00
52621;DHT22;38515;53.160;6.990;2023-11-21T12:16:40;8.90;1.00
52621;DHT22;38515;53.160;6.990;2023-11-21T12:19:06;8.90;1.00
52621;DHT22;38515;53.160;6.990;2023-11-21T12:21:32;9.00;12.80
52621;DHT22;38515;53.160;6.990;2023-11-21T12:23:58;9.00;99.90
52621;DHT22;38515;53.160;6.990;2023-11-21T12:26:24;8.90;99.90
52621;DHT22;38515;53.160;6.990;2023-11-21T12:28:54;8.90;1.10
52621;DHT22;38515;53.160;6.990;2023-11-21T12:31:23;9.00;99.90
52621;DHT22;38515;53.160;6.990;2023-11-21T12:33:49;9.10;99.90
52621;DHT22;38515;53.160;6.990;2023-11-21T12:36:15;10.00;99.90
52621;DHT22;38515;53.160;6.990;2023-11-21T12:38:42;9.10;99.90
52621;DHT22;38515;53.160;6.990;2023-11-21T12:41:09;9.10;84.80
52621;DHT22;38515;53.160;6.990;2023-11-21T12:43:38;9.00;1.00
52621;DHT22;38515;53.160;6.990;2023-11-21T12:46:09;9.00;99.90
52621;DHT22;38515;53.160;6.990;2023-11-21T12:48:39;9.10;1.00
52621;DHT22;38515;53.160;6.990;2023-11-21T12:51:08;9.10;1.00
52621;DHT22;38515;53.160;6.990;2023-11-21T12:53:36;9.00;75.00
52621;DHT22;38515;53.160;6.990;2023-11-21T12:56:13;9.00;99.90
52621;DHT22;38515;53.160;6.990;2023-11-21T12:58:45;8.90;1.00
52621;DHT22;38515;53.160;6.990;2023-11-21T13:01:13;8.90;99.90
52621;DHT22;38515;53.160;6.990;2023-11-21T13:03:46;8.90;99.90
52621;DHT22;38515;53.160;6.990;2023-11-21T13:06:15;8.80;99.90
52621;DHT22;38515;53.160;6.990;2023-11-21T13:08:41;8.80;99.90
52621;DHT22;38515;53.160;6.990;2023-11-21T13:11:11;8.70;99.90
52621;DHT22;38515;53.160;6.990;2023-11-21T13:13:41;8.70;99.90
52621;DHT22;38515;53.160;6.990;2023-11-21T13:16:08;8.60;99.90
52621;DHT22;38515;53.160;6.990;2023-11-21T13:18:35;8.60;99.90
52621;DHT22;38515;53.160;6.990;2023-11-21T13:21:04;8.50;99.90
52621;DHT22;38515;53.160;6.990;2023-11-21T13:23:36;8.50;24.40
52621;DHT22;38515;53.160;6.990;2023-11-21T13:26:03;8.40;88.50
52621;DHT22;38515;53.160;6.990;2023-11-21T13:28:30;8.40;99.90
52621;DHT22;38515;53.160;6.990;2023-11-21T13:30:59;8.40;1.00
52621;DHT22;38515;53.160;6.990;2023-11-21T13:33:45;8.30;99.90
52621;DHT22;38515;53.160;6.990;2023-11-21T13:36:16;8.40;99.90
52621;DHT22;38515;53.160;6.990;2023-11-21T13:38:51;8.40;1.00
52621;DHT22;38515;53.160;6.990;2023-11-21T13:41:20;8.40;99.90
52621;DHT22;38515;53.160;6.990;2023-11-21T13:43:53;8.40;1.00
52621;DHT22;38515;53.160;6.990;2023-11-21T13:46:29;8.40;1.00
52621;DHT22;38515;53.160;6.990;2023-11-21T13:48:59;8.40;99.90
52621;DHT22;38515;53.160;6.990;2023-11-21T13:51:26;8.30;69.90
52621;DHT22;38515;53.160;6.990;2023-11-21T13:54:03;8.40;99.90
52621;DHT22;38515;53.160;6.990;2023-11-21T13:56:34;8.40;1.00
52621;DHT22;38515;53.160;6.990;2023-11-21T13:59:00;8.30;99.90
52621;DHT22;38515;53.160;6.990;2023-11-21T14:01:34;8.40;1.00
52621;DHT22;38515;53.160;6.990;2023-11-21T14:04:19;8.40;1.00
52621;DHT22;38515;53.160;6.990;2023-11-21T14:06:56;8.30;99.90
52621;DHT22;38515;53.160;6.990;2023-11-21T14:09:24;8.30;1.00
52621;DHT22;38515;53.160;6.990;2023-11-21T14:11:55;8.30;93.80
52621;DHT22;38515;53.160;6.990;2023-11-21T14:14:25;8.30;99.90
52621;DHT22;38515;53.160;6.990;2023-11-21T14:16:52;8.20;99.90
52621;DHT22;38515;53.160;6.990;2023-11-21T14:19:18;8.20;1.00
52621;DHT22;38515;53.160;6.990;2023-11-21T14:21:45;8.10;99.90
52621;DHT22;38515;53.160;6.990;2023-11-21T14:24:15;8.20;1.00
52621;DHT22;38515;53.160;6.990;2023-11-21T14:26:44;8.10;99.90
52621;DHT22;38515;53.160;6.990;2023-11-21T14:29:15;8.10;99.90
52621;DHT22;38515;53.160;6.990;2023-11-21T14:31:48;8.10;99.90
52621;DHT22;38515;53.160;6.990;2023-11-21T14:34:15;8.10;99.90
52621;DHT22;38515;53.160;6.990;2023-11-21T14:36:42;8.10;99.90
52621;DHT22;38515;53.160;6.990;2023-11-21T14:39:09;8.00;99.90
52621;DHT22;38515;53.160;6.990;2023-11-21T14:41:46;7.90;99.90
52621;DHT22;38515;53.160;6.990;2023-11-21T14:44:11;7.80;1.00
52621;DHT22;38515;53.160;6.990;2023-11-21T14:46:39;7.70;1.00
52621;DHT22;38515;53.160;6.990;2023-11-21T14:49:09;7.80;99.90
52621;DHT22;38515;53.160;6.990;2023-11-21T14:51:51;7.80;99.90
52621;DHT22;38515;53.160;6.990;2023-11-21T14:54:28;7.80;1.00
52621;DHT22;38515;53.160;6.990;2023-11-21T14:57:21;7.80;1.00
52621;DHT22;38515;53.160;6.990;2023-11-21T14:59:49;7.80;1.00
52621;DHT22;38515;53.160;6.990;2023-11-21T15:02:22;7.80;1.00
52621;DHT22;38515;53.160;6.990;2023-11-21T15:05:08;7.70;99.90
52621;DHT22;38515;53.160;6.990;2023-11-21T15:07:41;7.60;93.30
52621;DHT22;38515;53.160;6.990;2023-11-21T15:10:08;7.60;97.30
52621;DHT22;38515;53.160;6.990;2023-11-21T15:12:40;7.60;1.00
52621;DHT22;38515;53.160;6.990;2023-11-21T15:15:08;7.60;99.90
52621;DHT22;38515;53.160;6.990;2023-11-21T15:17:37;7.60;1.00
52621;DHT22;38515;53.160;6.990;2023-11-21T15:20:04;7.50;99.90
52621;DHT22;38515;53.160;6.990;2023-11-21T15:22:32;7.50;93.60
52621;DHT22;38515;53.160;6.990;2023-11-21T15:24:58;7.60;1.00
52621;DHT22;38515;53.160;6.990;2023-11-21T15:27:25;7.50;99.90
52621;DHT22;38515;53.160;6.990;2023-11-21T15:29:53;7.40;99.90
52621;DHT22;38515;53.160;6.990;2023-11-21T15:32:19;7.50;1.00
52621;DHT22;38515;53.160;6.990;2023-11-21T15:34:45;7.50;1.00
52621;DHT22;38515;53.160;6.990;2023-11-21T15:37:12;7.40;99.90
52621;DHT22;38515;53.160;6.990;2023-11-21T15:39:38;7.40;1.00
52621;DHT22;38515;53.160;6.990;2023-11-21T15:42:05;7.30;89.90
52621;DHT22;38515;53.160;6.990;2023-11-21T15:44:33;7.20;1.00
52621;DHT22;38515;53.160;6.990;2023-11-21T15:46:59;7.20;96.20
52621;DHT22;38515;53.160;6.990;2023-11-21T15:49:25;7.10;99.90
52621;DHT22;38515;53.160;6.990;2023-11-21T15:51:53;7.00;18.10
52621;DHT22;38515;53.160;6.990;2023-11-21T15:54:20;7.00;99.90
52621;DHT22;38515;53.160;6.990;2023-11-21T15:56:47;6.90;1.00
52621;DHT22;38515;53.160;6.990;2023-11-21T15:59:14;6.80;99.90
52621;DHT22;38515;53.160;6.990;2023-11-21T16:01:40;6.80;99.90
52621;DHT22;38515;53.160;6.990;2023-11-21T16:04:10;6.80;1.00
52621;DHT22;38515;53.160;6.990;2023-11-21T16:06:37;6.60;1.00
52621;DHT22;38515;53.160;6.990;2023-11-21T16:09:08;6.60;99.90
52621;DHT22;38515;53.160;6.990;2023-11-21T16:15:26;6.70;99.90
52621;DHT22;38515;53.160;6.990;2023-11-21T16:17:52;6.60;99.90
52621;DHT22;38515;53.160;6.990;2023-11-21T16:20:26;6.70;1.00
52621;DHT22;38515;53.160;6.990;2023-11-21T16:23:01;6.60;99.90